Time,TemperatureF,DewpointF,PressureIn,WindDirection,WindDirectionDegrees,WindSpeedMPH,WindSpeedGustMPH,Humidity,HourlyPrecipIn,Conditions,Clouds,dailyrainin,SoftwareType,DateUTC
2013-05-02 00:02:00,69.0,61.0,30.06,South,190,6.0,6.0,75,-99.99,,,-99.99,,2013-05-02 05:02:00,
2013-05-02 00:12:00,70.0,62.0,30.06,South,190,8.0,10.0,75,-99.99,,,-99.99,,2013-05-02 05:12:00,
2013-05-02 00:22:00,70.0,62.0,30.06,South,190,8.0,10.0,75,-99.99,,,-99.99,,2013-05-02 05:22:00,
2013-05-02 00:32:00,71.0,61.0,30.06,SSW,200,7.0,9.0,73,-99.99,,,-99.99,,2013-05-02 05:32:00,
2013-05-02 00:42:00,70.0,61.0,30.06,SSW,195,7.0,11.0,74,-99.99,,,-99.99,,2013-05-02 05:42:00,
2013-05-02 00:52:00,70.0,61.0,30.06,SSW,195,7.0,11.0,74,-99.99,,,-99.99,,2013-05-02 05:52:00,
2013-05-02 01:01:00,69.0,61.0,30.05,South,180,8.0,10.0,75,-99.99,,,-99.99,,2013-05-02 06:01:00,
2013-05-02 01:12:00,69.0,61.0,30.05,South,185,9.0,11.0,76,-99.99,,,-99.99,,2013-05-02 06:12:00,
2013-05-02 01:21:00,69.0,61.0,30.05,South,185,9.0,11.0,76,-99.99,,,-99.99,,2013-05-02 06:21:00,
2013-05-02 01:32:00,68.0,61.0,30.04,South,190,9.0,11.0,77,-99.99,,,-99.99,,2013-05-02 06:32:00,
2013-05-02 01:42:00,68.0,61.0,30.04,South,190,8.0,11.0,78,-99.99,,,-99.99,,2013-05-02 06:42:00,
2013-05-02 01:52:00,68.0,61.0,30.04,South,190,8.0,11.0,78,-99.99,,,-99.99,,2013-05-02 06:52:00,
2013-05-02 02:02:00,68.0,60.0,30.04,SSW,200,6.0,9.0,77,-99.99,,,-99.99,,2013-05-02 07:02:00,
2013-05-02 02:11:00,67.0,60.0,30.04,South,185,6.0,7.0,79,-99.99,,,-99.99,,2013-05-02 07:11:00,
2013-05-02 02:21:00,67.0,60.0,30.04,South,185,6.0,7.0,79,-99.99,,,-99.99,,2013-05-02 07:21:00,
2013-05-02 02:32:00,67.0,60.0,30.04,South,185,7.0,9.0,79,-99.99,,,-99.99,,2013-05-02 07:32:00,
2013-05-02 02:42:00,67.0,60.0,30.04,SSW,195,4.0,9.0,79,-99.99,,,-99.99,,2013-05-02 07:42:00,
2013-05-02 02:52:00,67.0,60.0,30.04,SSW,195,4.0,9.0,79,-99.99,,,-99.99,,2013-05-02 07:52:00,
2013-05-02 03:02:00,68.0,60.0,30.04,NNW,330,1.0,2.0,77,-99.99,,,-99.99,,2013-05-02 08:02:00,
2013-05-02 03:11:00,68.0,61.0,30.04,West,280,2.0,4.0,78,-99.99,,,-99.99,,2013-05-02 08:11:00,
2013-05-02 03:22:00,68.0,61.0,30.04,West,280,2.0,4.0,78,-99.99,,,-99.99,,2013-05-02 08:22:00,
2013-05-02 03:32:00,67.0,60.0,30.05,NW,315,3.0,5.0,79,-99.99,,,-99.99,,2013-05-02 08:32:00,
2013-05-02 03:42:00,67.0,60.0,30.05,WNW,290,1.0,4.0,79,-99.99,,,-99.99,,2013-05-02 08:42:00,
2013-05-02 03:52:00,67.0,60.0,30.05,WNW,290,1.0,4.0,79,-99.99,,,-99.99,,2013-05-02 08:52:00,
2013-05-02 04:02:00,67.0,61.0,30.04,NW,315,1.0,3.0,80,-99.99,,,-99.99,,2013-05-02 09:02:00,
2013-05-02 04:12:00,67.0,61.0,30.04,NW,310,2.0,3.0,80,-99.99,,,-99.99,,2013-05-02 09:12:00,
2013-05-02 04:21:00,67.0,61.0,30.04,NW,310,2.0,3.0,80,-99.99,,,-99.99,,2013-05-02 09:21:00,
2013-05-02 04:32:00,66.0,60.0,30.05,WSW,245,1.0,2.0,82,-99.99,,,-99.99,,2013-05-02 09:32:00,
2013-05-02 04:42:00,67.0,60.0,30.05,NW,305,2.0,4.0,80,-99.99,,,-99.99,,2013-05-02 09:42:00,
2013-05-02 04:52:00,67.0,60.0,30.05,NW,305,2.0,4.0,80,-99.99,,,-99.99,,2013-05-02 09:52:00,
2013-05-02 05:03:00,66.0,60.0,30.07,NNW,340,5.0,6.0,81,-99.99,,,-99.99,,2013-05-02 10:03:00,
2013-05-02 05:12:00,66.0,60.0,30.07,North,350,11.0,14.0,83,-99.99,,,-99.99,,2013-05-02 10:12:00,
2013-05-02 05:22:00,66.0,60.0,30.07,North,350,11.0,14.0,83,-99.99,,,-99.99,,2013-05-02 10:22:00,
2013-05-02 05:33:00,64.0,58.0,30.08,North,10,9.0,13.0,82,-99.99,,,-99.99,,2013-05-02 10:33:00,
2013-05-02 05:42:00,63.0,57.0,30.09,North,0,10.0,16.0,80,-99.99,,,-99.99,,2013-05-02 10:42:00,
2013-05-02 05:52:00,63.0,57.0,30.09,North,0,10.0,16.0,80,-99.99,,,-99.99,,2013-05-02 10:52:00,
2013-05-02 06:02:00,61.0,54.0,30.09,North,350,10.0,15.0,77,-99.99,,,-99.99,,2013-05-02 11:02:00,
2013-05-02 06:12:00,60.0,53.0,30.10,NNW,345,12.0,16.0,77,-99.99,,,-99.99,,2013-05-02 11:12:00,
2013-05-02 06:22:00,60.0,53.0,30.10,NNW,345,12.0,16.0,77,-99.99,,,-99.99,,2013-05-02 11:22:00,
2013-05-02 06:32:00,58.0,51.0,30.11,North,0,13.0,20.0,77,-99.99,,,-99.99,,2013-05-02 11:32:00,
2013-05-02 06:42:00,57.0,50.0,30.11,North,5,17.0,21.0,77,-99.99,,,-99.99,,2013-05-02 11:42:00,
2013-05-02 06:52:00,57.0,50.0,30.11,North,5,17.0,21.0,77,-99.99,,,-99.99,,2013-05-02 11:52:00,
2013-05-02 07:01:00,56.0,50.0,30.12,North,5,14.0,17.0,78,-99.99,,,-99.99,,2013-05-02 12:01:00,
2013-05-02 07:11:00,56.0,49.0,30.13,North,0,9.0,18.0,78,-99.99,,,-99.99,,2013-05-02 12:11:00,
2013-05-02 07:21:00,56.0,49.0,30.13,North,0,9.0,18.0,78,-99.99,,,-99.99,,2013-05-02 12:21:00,
2013-05-02 07:32:00,54.0,48.0,30.14,North,0,11.0,22.0,79,-99.99,,,-99.99,,2013-05-02 12:32:00,
2013-05-02 07:42:00,54.0,48.0,30.15,North,5,13.0,17.0,79,-99.99,,,-99.99,,2013-05-02 12:42:00,
2013-05-02 07:52:00,54.0,48.0,30.15,North,5,13.0,17.0,79,-99.99,,,-99.99,,2013-05-02 12:52:00,
2013-05-02 08:01:00,53.0,46.0,30.15,North,0,13.0,19.0,78,-99.99,,,-99.99,,2013-05-02 13:01:00,
2013-05-02 08:11:00,53.0,46.0,30.15,North,10,15.0,20.0,77,-99.99,,,-99.99,,2013-05-02 13:11:00,
2013-05-02 08:21:00,53.0,46.0,30.15,North,10,15.0,20.0,77,-99.99,,,-99.99,,2013-05-02 13:21:00,
2013-05-02 08:32:00,52.0,46.0,30.17,North,10,12.0,17.0,78,-99.99,,,-99.99,,2013-05-02 13:32:00,
2013-05-02 08:42:00,52.0,46.0,30.17,North,0,10.0,15.0,78,-99.99,,,-99.99,,2013-05-02 13:42:00,
2013-05-02 08:52:00,52.0,46.0,30.17,North,0,10.0,15.0,78,-99.99,,,-99.99,,2013-05-02 13:52:00,
2013-05-02 09:02:00,52.0,46.0,30.17,North,5,13.0,16.0,78,-99.99,,,-99.99,,2013-05-02 14:02:00,
2013-05-02 09:11:00,52.0,45.0,30.16,North,0,13.0,17.0,77,-99.99,,,-99.99,,2013-05-02 14:11:00,
2013-05-02 09:22:00,52.0,45.0,30.16,North,0,13.0,17.0,77,-99.99,,,-99.99,,2013-05-02 14:22:00,
2013-05-02 09:32:00,52.0,45.0,30.17,NE,45,10.0,17.0,76,-99.99,,,-99.99,,2013-05-02 14:32:00,
2013-05-02 09:42:00,52.0,44.0,30.17,NE,40,10.0,15.0,75,-99.99,,,-99.99,,2013-05-02 14:42:00,
2013-05-02 09:52:00,52.0,44.0,30.17,NE,40,10.0,15.0,75,-99.99,,,-99.99,,2013-05-02 14:52:00,
2013-05-02 10:02:00,51.0,44.0,30.17,NE,45,9.0,12.0,77,-99.99,,,-99.99,,2013-05-02 15:02:00,
2013-05-02 10:12:00,52.0,45.0,30.17,NNE,30,9.0,13.0,77,-99.99,,,-99.99,,2013-05-02 15:12:00,
2013-05-02 10:22:00,52.0,45.0,30.17,NNE,30,9.0,13.0,77,-99.99,,,-99.99,,2013-05-02 15:22:00,
2013-05-02 10:33:00,52.0,45.0,30.17,North,355,11.0,15.0,77,-99.99,,,-99.99,,2013-05-02 15:33:00,
2013-05-02 10:43:00,51.0,44.0,30.17,North,5,11.0,15.0,77,-99.99,,,-99.99,,2013-05-02 15:43:00,
2013-05-02 11:03:00,52.0,45.0,30.16,North,5,13.0,17.0,76,-99.99,,,-99.99,,2013-05-02 16:03:00,
2013-05-02 11:13:00,52.0,44.0,30.16,North,10,17.0,21.0,75,-99.99,,,-99.99,,2013-05-02 16:13:00,
2013-05-02 11:22:00,52.0,44.0,30.16,North,10,17.0,21.0,75,-99.99,,,-99.99,,2013-05-02 16:22:00,
2013-05-02 11:32:00,53.0,45.0,30.18,North,0,12.0,21.0,76,-99.99,,,-99.99,,2013-05-02 16:32:00,
2013-05-02 11:43:00,52.0,44.0,30.19,North,0,13.0,17.0,74,-99.99,,,-99.99,,2013-05-02 16:43:00,
2013-05-02 11:52:00,52.0,44.0,30.19,North,0,13.0,17.0,74,-99.99,,,-99.99,,2013-05-02 16:52:00,
2013-05-02 12:02:00,51.0,44.0,30.19,North,0,13.0,19.0,77,-99.99,,,-99.99,,2013-05-02 17:02:00,
2013-05-02 12:12:00,51.0,44.0,30.19,North,0,13.0,22.0,78,-99.99,,,-99.99,,2013-05-02 17:12:00,
2013-05-02 12:22:00,51.0,44.0,30.19,North,0,13.0,22.0,78,-99.99,,,-99.99,,2013-05-02 17:22:00,
2013-05-02 12:32:00,50.0,44.0,30.20,North,5,13.0,19.0,78,-99.99,,,-99.99,,2013-05-02 17:32:00,
2013-05-02 12:42:00,51.0,44.0,30.19,North,350,14.0,22.0,79,-99.99,,,-99.99,,2013-05-02 17:42:00,
2013-05-02 12:52:00,51.0,44.0,30.19,North,350,14.0,22.0,79,-99.99,,,-99.99,,2013-05-02 17:52:00,
2013-05-02 13:01:00,50.0,43.0,30.19,North,10,14.0,21.0,78,-99.99,,,-99.99,,2013-05-02 18:01:00,
2013-05-02 13:11:00,50.0,44.0,30.19,North,0,13.0,20.0,78,-99.99,,,-99.99,,2013-05-02 18:11:00,
2013-05-02 13:21:00,50.0,44.0,30.19,North,0,13.0,20.0,78,-99.99,,,-99.99,,2013-05-02 18:21:00,
2013-05-02 13:32:00,50.0,43.0,30.18,North,0,13.0,19.0,78,-99.99,,,-99.99,,2013-05-02 18:32:00,
2013-05-02 13:42:00,49.0,43.0,30.18,North,0,12.0,20.0,79,-99.99,,,-99.99,,2013-05-02 18:42:00,
2013-05-02 13:52:00,49.0,43.0,30.18,North,0,12.0,20.0,79,-99.99,,,-99.99,,2013-05-02 18:52:00,
2013-05-02 14:01:00,49.0,43.0,30.18,NNE,20,15.0,18.0,80,-99.99,,,-99.99,,2013-05-02 19:01:00,
2013-05-02 14:11:00,49.0,43.0,30.17,NNE,25,14.0,20.0,81,-99.99,,,-99.99,,2013-05-02 19:11:00,
2013-05-02 14:21:00,49.0,43.0,30.17,NNE,25,14.0,20.0,81,-99.99,,,-99.99,,2013-05-02 19:21:00,
2013-05-02 14:32:00,48.0,44.0,30.17,North,10,12.0,18.0,84,-99.99,,,-99.99,,2013-05-02 19:32:00,
2013-05-02 14:42:00,49.0,44.0,30.18,North,0,11.0,20.0,84,-99.99,,,-99.99,,2013-05-02 19:42:00,
2013-05-02 14:52:00,49.0,44.0,30.18,North,0,11.0,20.0,84,-99.99,,,-99.99,,2013-05-02 19:52:00,
2013-05-02 15:02:00,48.0,43.0,30.18,North,0,15.0,19.0,83,-99.99,,,-99.99,,2013-05-02 20:02:00,
2013-05-02 15:11:00,48.0,43.0,30.17,North,0,14.0,18.0,83,-99.99,,,-99.99,,2013-05-02 20:11:00,
2013-05-02 15:22:00,48.0,43.0,30.17,North,0,14.0,18.0,83,-99.99,,,-99.99,,2013-05-02 20:22:00,
2013-05-02 15:32:00,48.0,43.0,30.17,North,0,13.0,17.0,82,-99.99,,,-99.99,,2013-05-02 20:32:00,
2013-05-02 15:41:00,48.0,43.0,30.17,NNE,20,12.0,19.0,81,-99.99,,,-99.99,,2013-05-02 20:41:00,
2013-05-02 15:52:00,48.0,43.0,30.17,NNE,20,12.0,19.0,81,-99.99,,,-99.99,,2013-05-02 20:52:00,
2013-05-02 16:01:00,48.0,43.0,30.17,NNE,15,11.0,18.0,81,-99.99,,,-99.99,,2013-05-02 21:01:00,
2013-05-02 16:12:00,48.0,42.0,30.16,North,5,14.0,19.0,82,-99.99,,,-99.99,,2013-05-02 21:12:00,
2013-05-02 16:21:00,48.0,42.0,30.16,North,5,14.0,19.0,82,-99.99,,,-99.99,,2013-05-02 21:21:00,
2013-05-02 16:33:00,48.0,43.0,30.16,NNE,20,12.0,20.0,84,-99.99,,,-99.99,,2013-05-02 21:33:00,
2013-05-02 16:42:00,48.0,43.0,30.17,NNE,15,11.0,18.0,83,-99.99,,,-99.99,,2013-05-02 21:42:00,
2013-05-02 16:53:00,48.0,43.0,30.17,NNE,15,11.0,18.0,83,-99.99,,,-99.99,,2013-05-02 21:53:00,
2013-05-02 17:03:00,47.0,43.0,30.16,NNE,20,12.0,20.0,85,-99.99,,,-99.99,,2013-05-02 22:03:00,
2013-05-02 17:12:00,47.0,43.0,30.17,North,5,14.0,19.0,85,-99.99,,,-99.99,,2013-05-02 22:12:00,
2013-05-02 17:22:00,47.0,43.0,30.17,North,5,14.0,19.0,85,-99.99,,,-99.99,,2013-05-02 22:22:00,
2013-05-02 17:32:00,47.0,42.0,30.17,North,0,15.0,22.0,85,-99.99,,,-99.99,,2013-05-02 22:32:00,
2013-05-02 17:42:00,46.0,42.0,30.17,North,5,15.0,21.0,85,-99.99,,,-99.99,,2013-05-02 22:42:00,
2013-05-02 17:52:00,46.0,42.0,30.17,North,5,15.0,21.0,85,-99.99,,,-99.99,,2013-05-02 22:52:00,
2013-05-02 18:02:00,46.0,42.0,30.16,NNE,15,17.0,20.0,85,-99.99,,,-99.99,,2013-05-02 23:02:00,
2013-05-02 18:11:00,45.0,41.0,30.15,North,5,18.0,23.0,85,-99.99,,,-99.99,,2013-05-02 23:11:00,
2013-05-02 18:22:00,45.0,41.0,30.15,North,5,18.0,23.0,85,-99.99,,,-99.99,,2013-05-02 23:22:00,
2013-05-02 18:32:00,45.0,41.0,30.16,North,5,13.0,19.0,87,-99.99,,,-99.99,,2013-05-02 23:32:00,
2013-05-02 18:42:00,44.0,41.0,30.16,North,10,15.0,23.0,86,-99.99,,,-99.99,,2013-05-02 23:42:00,
2013-05-02 18:51:00,44.0,41.0,30.16,North,10,15.0,23.0,86,-99.99,,,-99.99,,2013-05-02 23:51:00,
2013-05-02 19:01:00,45.0,41.0,30.15,North,0,14.0,21.0,86,-99.99,,,-99.99,,2013-05-03 00:01:00,
2013-05-02 19:11:00,44.0,40.0,30.15,North,0,15.0,24.0,86,-99.99,,,-99.99,,2013-05-03 00:11:00,
2013-05-02 19:21:00,44.0,40.0,30.15,North,0,15.0,24.0,86,-99.99,,,-99.99,,2013-05-03 00:21:00,
2013-05-02 19:31:00,44.0,40.0,30.16,North,10,12.0,22.0,84,-99.99,,,-99.99,,2013-05-03 00:31:00,
2013-05-02 19:42:00,44.0,39.0,30.17,North,10,19.0,23.0,83,-99.99,,,-99.99,,2013-05-03 00:42:00,
2013-05-02 19:52:00,44.0,39.0,30.17,North,10,19.0,23.0,83,-99.99,,,-99.99,,2013-05-03 00:52:00,
2013-05-02 20:01:00,43.0,39.0,30.16,North,5,15.0,23.0,85,-99.99,,,-99.99,,2013-05-03 01:01:00,
2013-05-02 20:11:00,42.0,39.0,30.15,NNE,20,20.0,25.0,86,-99.99,,,-99.99,,2013-05-03 01:11:00,
2013-05-02 20:21:00,42.0,39.0,30.15,NNE,20,20.0,25.0,86,-99.99,,,-99.99,,2013-05-03 01:21:00,
2013-05-02 20:31:00,42.0,39.0,30.16,North,10,13.0,21.0,86,-99.99,,,-99.99,,2013-05-03 01:31:00,
2013-05-02 20:42:00,42.0,38.0,30.16,NNE,20,15.0,23.0,86,-99.99,,,-99.99,,2013-05-03 01:42:00,
2013-05-02 20:52:00,42.0,38.0,30.16,NNE,20,15.0,23.0,86,-99.99,,,-99.99,,2013-05-03 01:52:00,
2013-05-02 21:01:00,42.0,39.0,30.17,North,10,12.0,17.0,87,-99.99,,,-99.99,,2013-05-03 02:01:00,
2013-05-02 21:11:00,42.0,38.0,30.16,North,5,15.0,19.0,86,-99.99,,,-99.99,,2013-05-03 02:11:00,
2013-05-02 21:21:00,42.0,38.0,30.16,North,5,15.0,19.0,86,-99.99,,,-99.99,,2013-05-03 02:21:00,
2013-05-02 21:32:00,41.0,38.0,30.16,North,10,16.0,28.0,87,-99.99,,,-99.99,,2013-05-03 02:32:00,
2013-05-02 21:42:00,41.0,37.0,30.16,North,10,16.0,25.0,86,-99.99,,,-99.99,,2013-05-03 02:42:00,
2013-05-02 21:52:00,41.0,37.0,30.16,North,10,16.0,25.0,86,-99.99,,,-99.99,,2013-05-03 02:52:00,
2013-05-02 22:01:00,41.0,37.0,30.16,NNE,15,17.0,23.0,86,-99.99,,,-99.99,,2013-05-03 03:01:00,
2013-05-02 22:11:00,41.0,37.0,30.16,North,0,12.0,20.0,86,-99.99,,,-99.99,,2013-05-03 03:11:00,
2013-05-02 22:21:00,41.0,37.0,30.16,North,0,12.0,20.0,86,-99.99,,,-99.99,,2013-05-03 03:21:00,
2013-05-02 22:33:00,41.0,37.0,30.15,NNE,15,16.0,27.0,86,-99.99,,,-99.99,,2013-05-03 03:33:00,
2013-05-02 22:42:00,41.0,37.0,30.15,NNE,15,13.0,22.0,86,-99.99,,,-99.99,,2013-05-03 03:42:00,
2013-05-02 22:52:00,41.0,37.0,30.15,NNE,15,13.0,22.0,86,-99.99,,,-99.99,,2013-05-03 03:52:00,
2013-05-02 23:03:00,40.0,36.0,30.15,North,0,15.0,22.0,86,-99.99,,,-99.99,,2013-05-03 04:03:00,
2013-05-02 23:12:00,40.0,36.0,30.15,North,10,19.0,25.0,86,-99.99,,,-99.99,,2013-05-03 04:12:00,
2013-05-02 23:23:00,40.0,36.0,30.15,North,10,19.0,25.0,86,-99.99,,,-99.99,,2013-05-03 04:23:00,
2013-05-02 23:32:00,39.0,35.0,30.15,North,5,15.0,20.0,86,-99.99,,,-99.99,,2013-05-03 04:32:00,
2013-05-02 23:42:00,39.0,35.0,30.14,North,5,19.0,25.0,86,-99.99,,,-99.99,,2013-05-03 04:42:00,
2013-05-02 23:52:00,39.0,35.0,30.14,North,5,19.0,25.0,86,-99.99,,,-99.99,,2013-05-03 04:52:00,